createdAt,value
2017-09-26T00:00:53.246Z,15.67
2017-09-26T00:03:20.009Z,16.40
2017-09-26T00:05:46.752Z,14.50
2017-09-26T00:08:13.549Z,17.63
2017-09-26T00:10:40.300Z,14.50
2017-09-26T00:13:07.203Z,15.53
2017-09-26T00:15:33.987Z,15.23
2017-09-26T00:18:00.735Z,17.67
2017-09-26T00:20:27.502Z,15.40
2017-09-26T00:22:54.312Z,15.47
2017-09-26T00:25:21.080Z,15.63
2017-09-26T00:27:47.892Z,16.60
2017-09-26T00:30:14.687Z,15.27
2017-09-26T00:32:41.487Z,14.50
2017-09-26T00:35:08.280Z,16.23
2017-09-26T00:37:35.202Z,15.93
2017-09-26T00:40:01.996Z,16.37
2017-09-26T00:42:28.765Z,15.57
2017-09-26T00:44:55.580Z,17.07
2017-09-26T00:47:22.355Z,15.93
2017-09-26T00:49:49.405Z,15.00
2017-09-26T00:52:16.199Z,17.47
2017-09-26T00:54:42.977Z,16.40
2017-09-26T00:57:09.761Z,16.27
2017-09-26T00:59:36.585Z,16.20
2017-09-26T01:02:03.410Z,17.53
2017-09-26T01:04:30.208Z,18.98
2017-09-26T01:07:00.635Z,18.23
2017-09-26T01:09:27.422Z,17.70
2017-09-26T01:11:54.191Z,15.80
2017-09-26T01:14:21.336Z,17.10
2017-09-26T01:16:48.118Z,17.17
2017-09-26T01:19:14.911Z,17.30
2017-09-26T01:21:41.766Z,16.90
2017-09-26T01:24:08.597Z,16.90
2017-09-26T01:26:35.516Z,16.00
2017-09-26T01:29:02.356Z,16.23
2017-09-26T01:31:29.317Z,16.27
2017-09-26T01:33:56.078Z,17.07
2017-09-26T01:36:22.873Z,17.30
2017-09-26T01:38:49.623Z,16.60
2017-09-26T01:41:20.272Z,16.47
2017-09-26T01:43:47.060Z,16.47
2017-09-26T01:46:13.819Z,17.17
2017-09-26T01:48:40.611Z,16.90
2017-09-26T01:51:07.437Z,16.60
2017-09-26T01:53:34.321Z,17.43
2017-09-26T01:56:01.109Z,16.67
2017-09-26T01:58:42.802Z,17.37
2017-09-26T02:01:09.575Z,17.90
2017-09-26T02:03:36.987Z,17.80
2017-09-26T02:06:03.775Z,16.70
2017-09-26T02:08:30.539Z,17.10
2017-09-26T02:10:57.982Z,17.40
2017-09-26T02:13:24.763Z,15.90
2017-09-26T02:15:51.535Z,16.10
2017-09-26T02:18:18.292Z,17.20
2017-09-26T02:20:45.077Z,15.70
2017-09-26T02:23:11.840Z,16.90
2017-09-26T02:25:38.617Z,16.77
2017-09-26T02:28:05.534Z,17.57
2017-09-26T02:30:32.346Z,18.00
2017-09-26T02:32:59.154Z,16.07
2017-09-26T02:35:25.962Z,15.90
2017-09-26T02:37:52.732Z,18.07
2017-09-26T02:40:19.501Z,16.00
2017-09-26T02:42:46.293Z,17.00
2017-09-26T02:45:13.065Z,16.80
2017-09-26T02:47:39.827Z,16.30
2017-09-26T02:50:06.644Z,16.30
2017-09-26T02:52:33.422Z,14.80
2017-09-26T02:55:00.186Z,17.87
2017-09-26T02:57:26.977Z,17.57
2017-09-26T02:59:53.738Z,16.50
2017-09-26T03:02:20.493Z,17.50
2017-09-26T03:04:47.284Z,17.67
2017-09-26T03:07:14.047Z,18.50
2017-09-26T03:09:40.798Z,17.93
2017-09-26T03:12:07.612Z,17.70
2017-09-26T03:14:34.368Z,17.93
2017-09-26T03:17:01.119Z,19.20
2017-09-26T03:19:27.900Z,18.43
2017-09-26T03:21:55.003Z,20.10
2017-09-26T03:24:21.751Z,17.27
2017-09-26T03:26:48.535Z,16.70
2017-09-26T03:29:15.279Z,18.20
2017-09-26T03:31:42.068Z,18.37
2017-09-26T03:34:08.906Z,17.03
2017-09-26T03:36:35.673Z,20.20
2017-09-26T03:39:02.462Z,20.47
2017-09-26T03:41:29.254Z,19.40
2017-09-26T03:43:56.191Z,20.30
2017-09-26T03:46:22.971Z,18.93
2017-09-26T03:48:49.764Z,19.50
2017-09-26T03:51:16.516Z,19.43
2017-09-26T03:53:43.292Z,18.33
2017-09-26T03:56:10.075Z,18.83
2017-09-26T03:58:36.890Z,21.37
2017-09-26T04:01:03.659Z,19.53
2017-09-26T04:03:30.486Z,19.90
2017-09-26T04:05:57.288Z,21.40
2017-09-26T04:08:24.073Z,21.47
2017-09-26T04:10:51.605Z,21.33
2017-09-26T04:13:18.359Z,20.13
2017-09-26T04:15:45.137Z,20.60
2017-09-26T04:18:12.000Z,23.47
2017-09-26T04:20:38.766Z,22.67
2017-09-26T04:23:05.519Z,22.10
2017-09-26T04:25:32.934Z,20.43
2017-09-26T04:27:59.693Z,20.83
2017-09-26T04:30:26.443Z,21.27
2017-09-26T04:32:53.233Z,21.20
2017-09-26T04:35:20.002Z,22.00
2017-09-26T04:37:46.755Z,24.10
2017-09-26T04:40:13.561Z,23.40
2017-09-26T04:42:40.343Z,21.13
2017-09-26T04:45:07.100Z,23.77
2017-09-26T04:47:34.633Z,24.23
2017-09-26T04:50:01.435Z,25.50
2017-09-26T04:52:28.197Z,23.20
2017-09-26T04:54:55.024Z,24.03
2017-09-26T04:57:21.780Z,23.23
2017-09-26T04:59:48.540Z,23.47
2017-09-26T05:02:15.317Z,25.70
2017-09-26T05:04:42.326Z,22.60
2017-09-26T05:07:09.110Z,24.23
2017-09-26T05:09:35.926Z,24.73
2017-09-26T05:12:02.672Z,24.33
2017-09-26T05:14:29.443Z,23.73
2017-09-26T05:16:56.271Z,24.63
2017-09-26T05:19:23.050Z,26.10
2017-09-26T05:21:49.791Z,24.67
2017-09-26T05:24:16.606Z,25.10
2017-09-26T05:26:43.374Z,22.73
2017-09-26T05:29:10.155Z,24.23
2017-09-26T05:31:36.955Z,24.60
2017-09-26T05:34:03.726Z,24.50
2017-09-26T05:36:30.509Z,23.87
2017-09-26T05:38:57.359Z,24.30
2017-09-26T05:41:24.117Z,24.03
2017-09-26T05:43:50.909Z,24.90
2017-09-26T05:46:17.725Z,24.67
2017-09-26T05:48:44.493Z,25.90
2017-09-26T05:51:11.258Z,26.90
2017-09-26T05:53:38.044Z,24.40
2017-09-26T05:56:04.870Z,24.47
2017-09-26T05:58:31.638Z,22.70
2017-09-26T06:00:58.458Z,23.97
2017-09-26T06:03:25.208Z,23.40
2017-09-26T06:05:51.983Z,24.20
2017-09-26T06:08:18.791Z,25.07
2017-09-26T06:10:45.565Z,23.57
2017-09-26T06:13:12.323Z,25.97
2017-09-26T06:15:39.142Z,26.43
2017-09-26T06:18:05.889Z,24.40
2017-09-26T06:20:32.921Z,27.83
2017-09-26T06:22:59.723Z,24.77
2017-09-26T06:25:26.487Z,27.00
2017-09-26T06:27:53.285Z,24.90
2017-09-26T06:30:20.079Z,23.53
2017-09-26T06:32:46.899Z,26.20
2017-09-26T06:35:13.672Z,25.43
2017-09-26T06:37:40.473Z,26.17
2017-09-26T06:40:07.211Z,27.37
2017-09-26T06:42:34.020Z,27.10
2017-09-26T06:45:00.846Z,26.80
2017-09-26T06:47:27.736Z,26.83
2017-09-26T06:49:54.502Z,27.73
2017-09-26T06:52:22.088Z,27.37
2017-09-26T06:54:48.864Z,24.53
2017-09-26T06:57:15.634Z,26.67
2017-09-26T06:59:42.444Z,24.50
2017-09-26T07:02:09.210Z,26.30
2017-09-26T07:04:35.990Z,29.43
2017-09-26T07:07:02.777Z,27.10
2017-09-26T07:09:29.574Z,28.97
2017-09-26T07:11:56.338Z,27.27
2017-09-26T07:14:23.121Z,27.13
2017-09-26T07:16:49.868Z,27.20
2017-09-26T07:19:17.231Z,28.00
2017-09-26T07:21:44.038Z,27.53
2017-09-26T07:24:10.784Z,25.73
2017-09-26T07:26:37.554Z,26.40
2017-09-26T07:29:04.474Z,23.83
2017-09-26T07:31:31.227Z,28.00
2017-09-26T07:33:58.015Z,27.93
2017-09-26T07:36:24.802Z,26.30
2017-09-26T07:38:51.566Z,27.40
2017-09-26T07:41:18.359Z,26.67
2017-09-26T07:43:45.163Z,26.03
2017-09-26T07:46:11.940Z,26.23
2017-09-26T07:48:38.726Z,27.83
2017-09-26T07:51:05.508Z,26.90
2017-09-26T07:53:32.271Z,26.87
2017-09-26T07:55:59.020Z,27.80
2017-09-26T07:58:25.832Z,25.27
2017-09-26T08:00:53.618Z,26.43
2017-09-26T08:03:21.303Z,25.63
2017-09-26T08:05:49.298Z,26.20
2017-09-26T08:08:16.960Z,28.77
2017-09-26T08:10:44.492Z,26.83
2017-09-26T08:13:11.310Z,25.47
2017-09-26T08:15:38.695Z,27.40
2017-09-26T08:18:05.463Z,24.67
2017-09-26T08:20:32.234Z,27.90
2017-09-26T08:22:58.985Z,25.50
2017-09-26T08:25:25.744Z,29.27
2017-09-26T08:27:52.550Z,26.90
2017-09-26T08:30:19.300Z,26.33
2017-09-26T08:32:46.046Z,29.27
2017-09-26T08:35:12.929Z,28.03
2017-09-26T08:37:40.370Z,27.40
2017-09-26T08:40:07.160Z,28.20
2017-09-26T08:42:33.967Z,26.50
2017-09-26T08:45:00.731Z,27.07
2017-09-26T08:47:27.586Z,28.53
2017-09-26T08:49:54.386Z,28.00
2017-09-26T08:52:21.128Z,27.93
2017-09-26T08:54:48.874Z,30.17
2017-09-26T08:57:15.651Z,27.30
2017-09-26T08:59:42.439Z,25.97
2017-09-26T09:02:09.196Z,26.00
2017-09-26T09:04:36.018Z,27.93
2017-09-26T09:07:02.796Z,29.10
2017-09-26T09:09:29.579Z,26.03
2017-09-26T09:11:56.400Z,27.90
2017-09-26T09:14:23.158Z,24.27
2017-09-26T09:16:49.958Z,26.50
2017-09-26T09:19:17.305Z,29.10
2017-09-26T09:21:44.068Z,27.63
2017-09-26T09:24:10.836Z,26.63
2017-09-26T09:26:37.624Z,26.47
2017-09-26T09:29:04.377Z,26.70
2017-09-26T09:31:31.155Z,27.53
2017-09-26T09:33:57.966Z,28.07
2017-09-26T09:36:24.741Z,26.50
2017-09-26T09:38:51.522Z,27.00
2017-09-26T09:41:18.308Z,27.73
2017-09-26T09:43:45.056Z,28.40
2017-09-26T09:46:11.818Z,29.67
2017-09-26T09:48:38.603Z,27.80
2017-09-26T09:51:05.382Z,29.50
2017-09-26T09:53:32.154Z,29.60
2017-09-26T09:55:59.702Z,30.77
2017-09-26T09:58:26.459Z,31.57
2017-09-26T10:00:53.222Z,33.37
2017-09-26T10:03:20.004Z,32.83
2017-09-26T10:05:46.774Z,32.97
2017-09-26T10:08:13.538Z,34.03
2017-09-26T10:10:40.337Z,32.63
2017-09-26T10:13:07.107Z,34.80
2017-09-26T10:15:33.856Z,33.87
2017-09-26T10:18:00.707Z,32.77
2017-09-26T10:20:27.474Z,35.13
2017-09-26T10:22:54.230Z,34.03
2017-09-26T10:25:21.797Z,34.73
2017-09-26T10:27:48.546Z,33.50
2017-09-26T10:30:16.448Z,32.40
2017-09-26T10:32:43.239Z,29.67
2017-09-26T10:35:09.992Z,30.47
2017-09-26T10:37:36.770Z,31.73
2017-09-26T10:40:03.578Z,30.73
2017-09-26T10:42:30.349Z,30.63
2017-09-26T10:44:57.102Z,30.90
2017-09-26T10:47:24.378Z,31.50
2017-09-26T10:49:51.149Z,26.67
2017-09-26T10:52:17.918Z,30.20
2017-09-26T10:54:44.700Z,28.27
2017-09-26T10:57:11.490Z,30.13
2017-09-26T10:59:38.261Z,30.40
2017-09-26T11:02:05.214Z,30.50
2017-09-26T11:04:31.995Z,29.87
2017-09-26T11:06:58.744Z,31.00
2017-09-26T11:09:25.547Z,27.30
2017-09-26T11:11:52.304Z,30.53
2017-09-26T11:14:19.053Z,29.53
2017-09-26T11:16:46.160Z,30.27
2017-09-26T11:19:12.929Z,29.70
2017-09-26T11:21:39.684Z,27.60
2017-09-26T11:24:06.474Z,31.00
2017-09-26T11:26:33.227Z,29.23
2017-09-26T11:29:00.006Z,28.57
2017-09-26T11:31:26.799Z,29.07
2017-09-26T11:33:53.547Z,32.97
2017-09-26T11:36:20.313Z,33.90
2017-09-26T11:38:47.153Z,36.10
2017-09-26T11:41:13.908Z,33.50
2017-09-26T11:43:40.679Z,36.40
2017-09-26T11:46:07.484Z,34.07
2017-09-26T11:48:34.246Z,32.07
2017-09-26T11:51:01.005Z,34.70
2017-09-26T11:53:27.804Z,31.83
2017-09-26T11:55:54.584Z,31.70
2017-09-26T11:58:21.346Z,30.13
2017-09-26T12:00:48.222Z,31.93
2017-09-26T12:03:14.994Z,31.90
2017-09-26T12:05:41.776Z,29.57
2017-09-26T12:08:08.614Z,27.10
2017-09-26T12:10:35.371Z,28.33
2017-09-26T12:13:07.807Z,31.13
2017-09-26T12:15:34.613Z,30.30
2017-09-26T12:18:01.459Z,27.90
2017-09-26T12:20:28.226Z,25.97
2017-09-26T12:22:55.040Z,28.07
2017-09-26T12:25:21.801Z,26.73
2017-09-26T12:27:48.548Z,26.00
2017-09-26T12:30:15.434Z,24.77
2017-09-26T12:32:42.382Z,26.97
2017-09-26T12:35:09.176Z,26.67
2017-09-26T12:37:36.406Z,29.83
2017-09-26T12:40:03.234Z,32.43
2017-09-26T12:42:30.064Z,34.57
2017-09-26T12:44:56.922Z,34.73
2017-09-26T12:47:23.701Z,36.90
2017-09-26T12:49:51.291Z,34.63
2017-09-26T12:52:18.442Z,33.03
2017-09-26T12:54:45.234Z,32.90
2017-09-26T12:57:12.009Z,33.23
2017-09-26T12:59:38.789Z,32.80
2017-09-26T13:02:05.611Z,34.87
2017-09-26T13:04:32.347Z,33.27
2017-09-26T13:06:59.283Z,34.13
2017-09-26T13:09:26.045Z,33.63
2017-09-26T13:11:52.812Z,35.00
2017-09-26T13:14:19.620Z,32.87
2017-09-26T13:16:46.407Z,34.43
2017-09-26T13:19:13.189Z,36.23
2017-09-26T13:21:39.967Z,34.53
2017-09-26T13:24:06.719Z,34.00
2017-09-26T13:26:33.478Z,35.13
2017-09-26T13:29:00.256Z,34.17
2017-09-26T13:31:27.018Z,35.00
2017-09-26T13:33:53.792Z,34.97
2017-09-26T13:36:20.591Z,34.97
2017-09-26T13:38:47.336Z,36.60
2017-09-26T13:41:14.313Z,36.60
2017-09-26T13:43:41.114Z,36.17
2017-09-26T13:46:08.066Z,36.40
2017-09-26T13:48:35.453Z,34.27
2017-09-26T13:51:02.276Z,34.67
2017-09-26T13:53:29.040Z,33.10
2017-09-26T13:55:55.831Z,33.57
2017-09-26T13:58:22.665Z,34.43
2017-09-26T14:00:49.715Z,32.57
2017-09-26T14:03:16.479Z,31.90
2017-09-26T14:05:43.285Z,29.80
2017-09-26T14:08:10.064Z,31.83
2017-09-26T14:10:36.839Z,30.03
2017-09-26T14:13:03.654Z,31.50
2017-09-26T14:15:30.412Z,31.63
2017-09-26T14:17:57.174Z,30.47
2017-09-26T14:20:24.003Z,31.20
2017-09-26T14:22:50.829Z,28.70
2017-09-26T14:25:17.584Z,30.13
2017-09-26T14:27:44.385Z,27.53
2017-09-26T14:30:11.135Z,29.10
2017-09-26T14:32:37.888Z,27.80
2017-09-26T14:35:04.711Z,31.50
2017-09-26T14:37:31.455Z,28.10
2017-09-26T14:39:58.244Z,29.47
2017-09-26T14:42:25.066Z,28.50
2017-09-26T14:44:51.886Z,30.23
2017-09-26T14:47:18.669Z,28.87
2017-09-26T14:49:45.686Z,29.93
2017-09-26T14:52:12.452Z,29.53
2017-09-26T14:54:39.234Z,32.10
2017-09-26T14:57:06.046Z,29.93
2017-09-26T14:59:32.815Z,30.57
2017-09-26T15:01:59.655Z,30.23
2017-09-26T15:04:26.487Z,31.10
2017-09-26T15:06:53.253Z,29.63
2017-09-26T15:09:20.066Z,28.73
2017-09-26T15:11:46.874Z,32.00
2017-09-26T15:14:13.652Z,31.00
2017-09-26T15:16:40.546Z,29.03
2017-09-26T15:19:07.387Z,29.40
2017-09-26T15:21:34.630Z,29.20
2017-09-26T15:24:01.662Z,29.00
2017-09-26T15:26:28.453Z,29.23
2017-09-26T15:28:55.220Z,30.90
2017-09-26T15:31:22.082Z,28.50
2017-09-26T15:33:48.885Z,29.10
2017-09-26T15:36:16.143Z,29.90
2017-09-26T15:38:43.066Z,30.87
2017-09-26T15:41:09.874Z,29.37
2017-09-26T15:43:36.650Z,31.40
2017-09-26T15:46:03.399Z,30.70
2017-09-26T15:48:30.187Z,30.03
2017-09-26T15:50:57.382Z,28.37
2017-09-26T15:53:24.170Z,27.83
2017-09-26T15:55:51.645Z,27.27
2017-09-26T15:58:18.457Z,27.70
2017-09-26T16:00:45.269Z,28.83
2017-09-26T16:03:12.077Z,26.90
2017-09-26T16:05:38.822Z,26.90
2017-09-26T16:08:05.580Z,27.83
2017-09-26T16:10:32.381Z,26.63
2017-09-26T16:12:59.137Z,26.53
2017-09-26T16:15:25.923Z,27.40
2017-09-26T16:17:52.946Z,28.97
2017-09-26T16:20:19.713Z,25.23
2017-09-26T16:22:46.465Z,25.57
2017-09-26T16:25:13.271Z,26.67
2017-09-26T16:27:40.042Z,27.90
2017-09-26T16:30:06.819Z,29.57
2017-09-26T16:32:33.947Z,28.63
2017-09-26T16:35:00.704Z,34.20
2017-09-26T16:37:27.470Z,30.90
2017-09-26T16:39:54.278Z,30.20
2017-09-26T16:42:21.033Z,30.33
2017-09-26T16:44:47.811Z,32.23
2017-09-26T16:47:14.595Z,31.47
2017-09-26T16:49:41.343Z,28.63
2017-09-26T16:52:08.093Z,27.53
2017-09-26T16:54:34.911Z,27.97
2017-09-26T16:57:01.651Z,30.20
2017-09-26T16:59:28.864Z,28.63
2017-09-26T17:01:55.648Z,27.77
2017-09-26T17:04:22.402Z,30.97
2017-09-26T17:06:49.151Z,29.17
2017-09-26T17:09:15.950Z,28.80
2017-09-26T17:11:42.707Z,30.80
2017-09-26T17:14:09.457Z,31.13
2017-09-26T17:16:36.282Z,30.33
2017-09-26T17:19:03.040Z,30.23
2017-09-26T17:21:29.783Z,29.93
2017-09-26T17:23:56.573Z,31.83
2017-09-26T17:26:23.346Z,30.00
2017-09-26T17:28:50.165Z,33.93
2017-09-26T17:31:17.102Z,35.23
2017-09-26T17:33:43.858Z,33.27
2017-09-26T17:36:10.620Z,29.40
2017-09-26T17:38:37.428Z,33.80
2017-09-26T17:41:04.178Z,31.80
2017-09-26T17:43:30.958Z,35.33
2017-09-26T17:45:57.757Z,30.73
2017-09-26T17:48:24.520Z,32.30
2017-09-26T17:50:51.450Z,30.17
2017-09-26T17:53:18.274Z,30.17
2017-09-26T17:55:45.047Z,31.97
2017-09-26T17:58:11.788Z,31.40
2017-09-26T18:00:38.568Z,32.37
2017-09-26T18:03:05.390Z,29.60
2017-09-26T18:05:32.212Z,31.67
2017-09-26T18:07:59.308Z,28.27
2017-09-26T18:10:26.135Z,31.93
2017-09-26T18:12:52.910Z,31.30
2017-09-26T18:15:19.683Z,32.30
2017-09-26T18:17:46.458Z,32.93
2017-09-26T18:20:13.230Z,30.30
2017-09-26T18:22:40.146Z,33.67
2017-09-26T18:25:07.378Z,29.50
2017-09-26T18:27:34.189Z,29.90
2017-09-26T18:30:01.349Z,31.30
2017-09-26T18:32:28.134Z,31.63
2017-09-26T18:34:54.904Z,30.70
2017-09-26T18:37:22.910Z,31.87
2017-09-26T18:39:49.726Z,30.90
2017-09-26T18:42:16.494Z,28.87
2017-09-26T18:44:43.295Z,32.67
2017-09-26T18:47:10.047Z,30.57
2017-09-26T18:49:36.804Z,29.83
2017-09-26T18:52:03.635Z,32.00
2017-09-26T18:54:30.419Z,29.10
2017-09-26T18:56:57.188Z,30.90
2017-09-26T18:59:23.980Z,33.67
2017-09-26T19:01:50.977Z,28.93
2017-09-26T19:04:18.356Z,34.67
2017-09-26T19:06:45.405Z,32.90
2017-09-26T19:09:12.172Z,32.97
2017-09-26T19:11:38.974Z,31.63
2017-09-26T19:14:05.862Z,33.77
2017-09-26T19:16:32.859Z,32.40
2017-09-26T19:18:59.611Z,32.80
2017-09-26T19:21:26.435Z,32.23
2017-09-26T19:23:53.179Z,33.30
2017-09-26T19:26:19.940Z,33.77
2017-09-26T19:28:46.728Z,34.10
2017-09-26T19:31:13.491Z,34.83
2017-09-26T19:33:40.692Z,35.73
2017-09-26T19:36:07.512Z,34.70
2017-09-26T19:38:34.294Z,32.90
2017-09-26T19:41:01.405Z,33.80
2017-09-26T19:43:28.229Z,34.10
2017-09-26T19:45:55.002Z,31.67
2017-09-26T19:48:21.919Z,33.27
2017-09-26T19:50:48.838Z,35.30
2017-09-26T19:53:15.631Z,36.33
2017-09-26T19:55:42.405Z,33.30
2017-09-26T19:58:10.135Z,34.47
2017-09-26T20:00:36.904Z,31.17
2017-09-26T20:03:03.669Z,35.50
2017-09-26T20:05:30.455Z,33.93
2017-09-26T20:07:57.290Z,33.93
2017-09-26T20:10:24.956Z,33.70
2017-09-26T20:12:51.764Z,37.17
2017-09-26T20:15:18.569Z,32.80
2017-09-26T20:17:45.622Z,35.03
2017-09-26T20:20:12.557Z,34.43
2017-09-26T20:22:39.339Z,31.67
2017-09-26T20:25:06.197Z,38.40
2017-09-26T20:27:33.242Z,34.33
2017-09-26T20:29:59.992Z,35.93
2017-09-26T20:32:26.786Z,36.23
2017-09-26T20:34:54.684Z,34.27
2017-09-26T20:37:21.624Z,35.83
2017-09-26T20:39:48.407Z,34.57
2017-09-26T20:42:15.187Z,35.33
2017-09-26T20:44:41.978Z,36.17
2017-09-26T20:47:08.910Z,35.00
2017-09-26T20:49:35.695Z,35.20
2017-09-26T20:52:02.456Z,33.13
2017-09-26T20:54:29.205Z,31.47
2017-09-26T20:56:56.024Z,34.10
2017-09-26T20:59:22.792Z,33.63
2017-09-26T21:01:50.159Z,34.80
2017-09-26T21:04:16.945Z,33.90
2017-09-26T21:06:43.743Z,33.93
2017-09-26T21:09:10.492Z,34.40
2017-09-26T21:11:37.267Z,32.33
2017-09-26T21:14:04.032Z,32.67
2017-09-26T21:16:31.647Z,30.63
2017-09-26T21:19:04.650Z,33.53
2017-09-26T21:21:34.143Z,32.93
2017-09-26T21:24:18.182Z,32.00
2017-09-26T21:26:49.223Z,30.00
2017-09-26T21:29:20.445Z,34.30
2017-09-26T21:31:47.745Z,33.90
2017-09-26T21:34:14.875Z,31.43
2017-09-26T21:36:42.721Z,30.23
2017-09-26T21:39:11.438Z,32.23
2017-09-26T21:41:40.769Z,32.03
2017-09-26T21:44:07.603Z,30.33
2017-09-26T21:46:34.379Z,32.47
2017-09-26T21:49:01.171Z,29.70
2017-09-26T21:51:27.983Z,30.57
2017-09-26T21:53:54.750Z,30.40
2017-09-26T21:56:21.514Z,33.57
2017-09-26T21:58:49.127Z,33.20
2017-09-26T22:01:15.983Z,32.90
2017-09-26T22:03:42.723Z,32.53
2017-09-26T22:06:09.595Z,32.80
2017-09-26T22:08:36.402Z,32.93
2017-09-26T22:11:03.213Z,35.47
2017-09-26T22:13:30.024Z,34.30
2017-09-26T22:15:56.782Z,34.30
2017-09-26T22:18:23.558Z,36.43
2017-09-26T22:20:50.370Z,34.43
2017-09-26T22:23:17.139Z,34.57
2017-09-26T22:25:43.950Z,34.17
2017-09-26T22:28:10.749Z,37.83
2017-09-26T22:30:37.541Z,35.97
2017-09-26T22:33:04.311Z,39.00
2017-09-26T22:35:31.196Z,35.97
2017-09-26T22:37:57.977Z,37.87
2017-09-26T22:40:24.893Z,36.80
2017-09-26T22:42:51.711Z,37.43
2017-09-26T22:45:18.540Z,35.93
2017-09-26T22:47:45.364Z,37.97
2017-09-26T22:50:12.189Z,36.30
2017-09-26T22:52:39.034Z,37.53
2017-09-26T22:55:05.804Z,38.83
2017-09-26T22:57:32.679Z,40.77
2017-09-26T22:59:59.485Z,38.80
2017-09-26T23:02:26.254Z,37.40
2017-09-26T23:04:53.111Z,40.63
2017-09-26T23:07:19.857Z,39.00
2017-09-26T23:09:46.605Z,38.10
2017-09-26T23:12:13.420Z,38.40
2017-09-26T23:14:40.189Z,36.37
2017-09-26T23:17:06.930Z,39.33
2017-09-26T23:19:33.718Z,37.03
2017-09-26T23:22:00.494Z,38.20
2017-09-26T23:24:27.251Z,37.50
2017-09-26T23:26:54.122Z,36.47
2017-09-26T23:29:20.868Z,36.53
2017-09-26T23:31:47.631Z,36.40
2017-09-26T23:34:14.462Z,38.17
2017-09-26T23:36:41.226Z,37.40
2017-09-26T23:39:08.007Z,37.50
2017-09-26T23:41:34.842Z,35.77
2017-09-26T23:44:01.593Z,33.90
2017-09-26T23:46:28.360Z,32.17
2017-09-26T23:48:55.159Z,34.47
2017-09-26T23:51:21.945Z,33.70
2017-09-26T23:53:48.688Z,31.67
2017-09-26T23:56:15.530Z,31.20
2017-09-26T23:58:42.298Z,31.87
